createdAt,value
2022-08-27T00:02:36.872Z,99725.28
2022-08-27T00:05:42.581Z,99719.34
2022-08-27T00:08:48.712Z,99723.09
2022-08-27T00:11:53.445Z,99736.22
2022-08-27T00:14:59.690Z,99742.34
2022-08-27T00:18:04.644Z,99727.66
2022-08-27T00:21:09.826Z,99746.03
2022-08-27T00:24:14.424Z,99748.94
2022-08-27T00:27:19.993Z,99729.25
2022-08-27T00:30:25.520Z,99735.94
2022-08-27T00:33:31.529Z,99720.16
2022-08-27T00:36:36.570Z,99726.84
2022-08-27T00:39:41.022Z,99718.66
2022-08-27T00:42:46.872Z,99721.63
2022-08-27T00:45:55.260Z,99706.41
2022-08-27T00:49:24.649Z,99708.06
2022-08-27T00:52:42.309Z,99699.41
2022-08-27T00:55:59.274Z,99699.44
2022-08-27T00:59:04.608Z,99685.19
2022-08-27T01:02:21.092Z,99698.41
2022-08-27T01:05:28.038Z,99686.34
2022-08-27T01:08:36.094Z,99686.69
2022-08-27T01:11:43.945Z,99695.72
2022-08-27T01:14:48.899Z,99699.69
2022-08-27T01:17:54.333Z,99717.53
2022-08-27T01:21:08.101Z,99704.09
2022-08-27T01:24:36.879Z,99674.34
2022-08-27T01:27:43.020Z,99676.53
2022-08-27T01:30:47.712Z,99665.25
2022-08-27T01:34:00.887Z,99661.34
2022-08-27T01:37:07.484Z,99652.09
2022-08-27T01:40:14.413Z,99646.94
2022-08-27T01:43:21.898Z,99645.97
2022-08-27T01:46:29.680Z,99672.25
2022-08-27T01:49:35.320Z,99672.25
2022-08-27T01:52:40.006Z,99647.13
2022-08-27T01:55:48.189Z,99635.72
2022-08-27T01:58:53.350Z,99636.16
2022-08-27T02:01:58.883Z,99633.78
2022-08-27T02:05:03.605Z,99612.72
2022-08-27T02:08:08.998Z,99619.94
2022-08-27T02:11:13.873Z,99621.94
2022-08-27T02:14:18.529Z,99622.19
2022-08-27T02:17:23.265Z,99623.03
2022-08-27T02:20:29.399Z,99619.19
2022-08-27T02:23:34.209Z,99631.53
2022-08-27T02:26:38.954Z,99639.06
2022-08-27T02:29:43.884Z,99643.91
2022-08-27T02:32:53.336Z,99641.50
2022-08-27T02:35:58.392Z,99635.41
2022-08-27T02:39:02.985Z,99630.34
2022-08-27T02:42:07.654Z,99631.22
2022-08-27T02:45:14.094Z,99628.84
2022-08-27T02:48:19.256Z,99625.63
2022-08-27T02:51:23.795Z,99631.53
2022-08-27T02:54:28.554Z,99622.94
2022-08-27T02:57:36.347Z,99623.81
2022-08-27T03:00:42.131Z,99620.69
2022-08-27T03:03:46.713Z,99614.66
2022-08-27T03:06:51.925Z,99603.91
2022-08-27T03:09:56.372Z,99601.81
2022-08-27T03:13:01.158Z,99589.38
2022-08-27T03:16:07.099Z,99591.09
2022-08-27T03:19:12.315Z,99572.00
2022-08-27T03:22:16.978Z,99546.19
2022-08-27T03:25:22.119Z,99579.66
2022-08-27T03:28:29.669Z,99569.50
2022-08-27T03:31:34.281Z,99570.13
2022-08-27T03:34:39.179Z,99581.13
2022-08-27T03:37:44.325Z,99570.28
2022-08-27T03:40:49.461Z,99561.59
2022-08-27T03:43:54.091Z,99559.59
2022-08-27T03:46:58.758Z,99525.81
2022-08-27T03:50:03.879Z,99542.91
2022-08-27T03:53:09.549Z,99564.50
2022-08-27T03:56:15.560Z,99573.25
2022-08-27T03:59:21.102Z,99577.16
2022-08-27T04:02:27.134Z,99570.59
2022-08-27T04:05:31.990Z,99582.97
2022-08-27T04:08:36.935Z,99590.47
2022-08-27T04:11:41.982Z,99573.94
2022-08-27T04:14:46.741Z,99568.06
2022-08-27T04:17:52.328Z,99566.75
2022-08-27T04:20:57.644Z,99547.75
2022-08-27T04:24:02.331Z,99554.81
2022-08-27T04:27:07.703Z,99551.06
2022-08-27T04:30:16.464Z,99549.81
2022-08-27T04:33:21.244Z,99532.28
2022-08-27T04:36:25.742Z,99537.94
2022-08-27T04:39:31.543Z,99534.41
2022-08-27T04:42:36.217Z,99525.44
2022-08-27T04:45:46.040Z,99542.56
2022-08-27T04:48:51.139Z,99533.47
2022-08-27T04:51:56.380Z,99528.44
2022-08-27T04:55:01.505Z,99527.47
2022-08-27T04:58:07.182Z,99530.41
2022-08-27T05:01:20.907Z,99535.97
2022-08-27T05:04:26.662Z,99526.63
2022-08-27T05:07:31.726Z,99519.28
2022-08-27T05:10:50.996Z,99517.44
2022-08-27T05:13:56.291Z,99523.53
2022-08-27T05:17:01.470Z,99525.31
2022-08-27T05:20:07.034Z,99525.56
2022-08-27T05:23:12.530Z,99526.44
2022-08-27T05:26:17.304Z,99524.31
2022-08-27T05:29:23.115Z,99511.59
2022-08-27T05:32:27.567Z,99509.03
2022-08-27T05:35:33.552Z,99515.38
2022-08-27T05:38:38.689Z,99507.41
2022-08-27T05:41:43.940Z,99489.91
2022-08-27T05:44:48.580Z,99490.72
2022-08-27T05:47:53.438Z,99493.63
2022-08-27T05:50:58.409Z,99499.53
2022-08-27T05:54:08.791Z,99492.28
2022-08-27T05:57:13.836Z,99492.31
2022-08-27T06:00:37.466Z,99477.03
2022-08-27T06:03:42.738Z,99502.97
2022-08-27T06:06:47.399Z,99494.03
2022-08-27T06:09:52.525Z,99465.63
2022-08-27T06:12:57.676Z,99470.56
2022-08-27T06:16:17.196Z,99470.25
2022-08-27T06:19:21.888Z,99453.84
2022-08-27T06:22:26.905Z,99481.19
2022-08-27T06:25:33.191Z,99482.13
2022-08-27T06:28:39.894Z,99474.25
2022-08-27T06:31:44.698Z,99472.53
2022-08-27T06:34:49.646Z,99459.06
2022-08-27T06:37:54.247Z,99477.53
2022-08-27T06:41:01.688Z,99475.59
2022-08-27T06:44:06.454Z,99469.53
2022-08-27T06:47:11.542Z,99453.53
2022-08-27T06:50:19.724Z,99459.75
2022-08-27T06:53:25.363Z,99449.91
2022-08-27T06:56:32.716Z,99453.13
2022-08-27T06:59:38.738Z,99428.53
2022-08-27T07:02:44.993Z,99446.69
2022-08-27T07:05:49.572Z,99453.97
2022-08-27T07:08:54.389Z,99457.72
2022-08-27T07:11:59.603Z,99460.00
2022-08-27T07:15:04.232Z,99458.78
2022-08-27T07:18:10.013Z,99468.31
2022-08-27T07:21:17.081Z,99451.72
2022-08-27T07:24:22.060Z,99464.06
2022-08-27T07:27:26.887Z,99452.16
2022-08-27T07:30:31.827Z,99459.22
2022-08-27T07:33:38.094Z,99462.56
2022-08-27T07:36:42.934Z,99471.13
2022-08-27T07:39:47.819Z,99469.19
2022-08-27T07:43:10.632Z,99452.25
2022-08-27T07:46:15.161Z,99455.59
2022-08-27T07:49:20.161Z,99456.41
2022-08-27T07:52:26.706Z,99461.88
2022-08-27T07:55:31.432Z,99459.94
2022-08-27T07:58:36.582Z,99467.44
2022-08-27T08:01:43.590Z,99435.69
2022-08-27T08:04:48.764Z,99443.59
2022-08-27T08:07:53.607Z,99436.94
2022-08-27T08:10:59.353Z,99439.63
2022-08-27T08:14:04.401Z,99429.38
2022-08-27T08:17:10.404Z,99433.59
2022-08-27T08:20:24.035Z,99418.03
2022-08-27T08:23:33.843Z,99419.22
2022-08-27T08:26:38.574Z,99423.41
2022-08-27T08:29:43.485Z,99425.56
2022-08-27T08:32:48.038Z,99428.38
2022-08-27T08:35:53.942Z,99427.59
2022-08-27T08:38:58.746Z,99434.66
2022-08-27T08:42:07.538Z,99426.97
2022-08-27T08:45:14.206Z,99420.88
2022-08-27T08:48:25.345Z,99424.09
2022-08-27T08:51:41.472Z,99419.53
2022-08-27T08:54:46.181Z,99421.34
2022-08-27T08:58:00.843Z,99430.34
2022-08-27T09:01:08.487Z,99428.00
2022-08-27T09:04:14.405Z,99408.19
2022-08-27T09:07:47.992Z,99424.81
2022-08-27T09:11:00.884Z,99425.97
2022-08-27T09:14:17.872Z,99438.59
2022-08-27T09:17:22.429Z,99419.44
2022-08-27T09:20:27.354Z,99433.59
2022-08-27T09:23:40.500Z,99433.22
2022-08-27T09:26:46.723Z,99436.00
2022-08-27T09:29:54.069Z,99435.53
2022-08-27T09:33:05.866Z,99430.41
2022-08-27T09:36:15.138Z,99413.97
2022-08-27T09:39:20.272Z,99418.66
2022-08-27T09:42:27.827Z,99424.38
2022-08-27T09:45:32.816Z,99419.22
2022-08-27T09:48:39.002Z,99430.56
2022-08-27T09:51:47.011Z,99418.81
2022-08-27T09:54:56.505Z,99400.03
2022-08-27T09:58:02.024Z,99427.88
2022-08-27T10:01:08.586Z,99426.47
2022-08-27T10:04:16.969Z,99411.59
2022-08-27T10:07:27.927Z,99425.22
2022-08-27T10:10:44.763Z,99427.72
2022-08-27T10:14:02.218Z,99421.50
2022-08-27T10:17:29.695Z,99425.88
2022-08-27T10:20:52.852Z,99426.66
2022-08-27T10:24:26.822Z,99429.25
2022-08-27T10:27:53.190Z,99374.84
2022-08-27T10:30:57.952Z,99429.13
2022-08-27T10:34:17.872Z,99415.19
2022-08-27T10:37:53.043Z,99427.31
2022-08-27T10:41:22.267Z,99432.34
2022-08-27T10:44:36.925Z,99405.66
2022-08-27T10:48:13.097Z,99406.59
2022-08-27T10:51:42.799Z,99416.38
2022-08-27T10:55:11.960Z,99307.38
2022-08-27T10:58:17.027Z,99415.59
2022-08-27T11:01:30.553Z,99390.47
2022-08-27T11:04:43.594Z,99432.22
2022-08-27T11:07:59.934Z,99435.56
2022-08-27T11:11:56.967Z,99438.13
2022-08-27T11:14:42.799Z,99445.50
2022-08-27T11:17:56.001Z,99437.75
2022-08-27T11:21:06.099Z,99455.44
2022-08-27T11:24:18.972Z,99445.78
2022-08-27T11:27:28.417Z,99427.84
2022-08-27T11:30:54.323Z,99438.06
2022-08-27T11:34:28.909Z,99441.50
2022-08-27T11:37:46.220Z,99444.94
2022-08-27T11:41:24.558Z,99441.41
2022-08-27T11:44:30.409Z,99437.88
2022-08-27T11:47:38.818Z,99441.31
2022-08-27T11:51:05.219Z,99436.44
2022-08-27T11:54:25.392Z,99440.81
2022-08-27T11:57:37.169Z,99423.13
2022-08-27T12:00:45.275Z,99454.69
2022-08-27T12:04:03.122Z,99447.75
2022-08-27T12:07:19.894Z,99457.44
2022-08-27T12:10:40.282Z,99452.09
2022-08-27T12:13:59.506Z,99462.50
2022-08-27T12:17:29.558Z,99467.66
2022-08-27T12:20:46.138Z,99465.25
2022-08-27T12:24:01.998Z,99466.97
2022-08-27T12:27:35.306Z,99474.16
2022-08-27T12:30:55.633Z,99477.03
2022-08-27T12:34:00.947Z,99475.97
2022-08-27T12:37:07.529Z,99489.91
2022-08-27T12:40:22.965Z,99495.50
2022-08-27T12:43:34.505Z,99510.91
2022-08-27T12:46:50.800Z,99479.81
2022-08-27T12:50:02.632Z,99516.16
2022-08-27T12:53:24.689Z,99504.22
2022-08-27T12:56:42.049Z,99505.81
2022-08-27T13:00:11.625Z,99515.53
2022-08-27T13:03:35.852Z,99507.44
2022-08-27T13:06:46.747Z,99529.00
2022-08-27T13:09:54.453Z,99536.50
2022-08-27T13:13:10.795Z,99494.97
2022-08-27T13:16:18.340Z,99523.28
2022-08-27T13:19:51.754Z,99523.47
2022-08-27T13:22:57.148Z,99531.84
2022-08-27T13:26:07.492Z,99539.06
2022-08-27T13:29:12.598Z,99538.69
2022-08-27T13:32:17.766Z,99542.50
2022-08-27T13:35:23.143Z,99562.72
2022-08-27T13:38:29.555Z,99560.81
2022-08-27T13:41:37.259Z,99569.56
2022-08-27T13:44:48.146Z,99568.47
2022-08-27T13:47:57.594Z,99591.28
2022-08-27T13:51:03.912Z,99581.63
2022-08-27T13:54:15.246Z,99582.78
2022-08-27T13:57:31.186Z,99590.03
2022-08-27T14:00:36.907Z,99594.38
2022-08-27T14:03:51.301Z,99608.66
2022-08-27T14:06:56.089Z,99601.59
2022-08-27T14:10:04.999Z,99594.97
2022-08-27T14:13:15.274Z,99612.78
2022-08-27T14:16:28.503Z,99618.56
2022-08-27T14:19:36.308Z,99622.59
2022-08-27T14:22:41.687Z,99611.50
2022-08-27T14:25:47.471Z,99631.03
2022-08-27T14:28:52.193Z,99621.91
2022-08-27T14:31:56.896Z,99636.47
2022-08-27T14:35:01.487Z,99630.69
2022-08-27T14:38:15.175Z,99646.97
2022-08-27T14:41:21.844Z,99646.19
2022-08-27T14:44:26.276Z,99639.72
2022-08-27T14:47:33.589Z,99655.22
2022-08-27T14:50:39.448Z,99647.47
2022-08-27T14:53:44.811Z,99669.66
2022-08-27T14:56:49.726Z,99655.28
2022-08-27T14:59:54.238Z,99673.16
2022-08-27T15:02:58.964Z,99682.28
2022-08-27T15:06:03.570Z,99685.09
2022-08-27T15:09:07.903Z,99686.25
2022-08-27T15:12:21.717Z,99692.28
2022-08-27T15:15:31.211Z,99698.53
2022-08-27T15:18:35.860Z,99696.22
2022-08-27T15:21:42.627Z,99704.78
2022-08-27T15:24:52.242Z,99703.38
2022-08-27T15:27:57.069Z,99697.03
2022-08-27T15:31:01.904Z,99701.56
2022-08-27T15:34:07.419Z,99704.25
2022-08-27T15:37:12.177Z,99702.91
2022-08-27T15:40:19.159Z,99706.28
2022-08-27T15:43:24.438Z,99694.44
2022-08-27T15:46:29.386Z,99694.34
2022-08-27T15:49:34.233Z,99701.97
2022-08-27T15:52:41.027Z,99711.47
2022-08-27T15:55:46.600Z,99701.97
2022-08-27T15:58:52.120Z,99714.34
2022-08-27T16:01:56.626Z,99722.03
2022-08-27T16:05:01.707Z,99722.09
2022-08-27T16:08:07.726Z,99718.84
2022-08-27T16:11:12.632Z,99717.50
2022-08-27T16:14:17.872Z,99726.44
2022-08-27T16:17:22.669Z,99719.28
2022-08-27T16:20:27.844Z,99724.88
2022-08-27T16:23:34.006Z,99726.91
2022-08-27T16:26:39.821Z,99733.97
2022-08-27T16:29:44.431Z,99722.72
2022-08-27T16:32:53.043Z,99745.56
2022-08-27T16:35:58.051Z,99741.00
2022-08-27T16:39:02.819Z,99741.00
2022-08-27T16:42:08.964Z,99745.66
2022-08-27T16:45:15.202Z,99751.94
2022-08-27T16:48:39.156Z,99756.78
2022-08-27T16:51:44.544Z,99752.16
2022-08-27T16:54:49.872Z,99774.91
2022-08-27T16:57:54.343Z,99773.56
2022-08-27T17:01:10.913Z,99772.78
2022-08-27T17:04:28.246Z,99787.22
2022-08-27T17:07:34.122Z,99785.66
2022-08-27T17:10:46.522Z,99804.16
2022-08-27T17:13:53.742Z,99803.44
2022-08-27T17:16:58.254Z,99792.31
2022-08-27T17:20:03.420Z,99809.19
2022-08-27T17:23:15.026Z,99818.13
2022-08-27T17:26:21.523Z,99837.63
2022-08-27T17:29:26.217Z,99837.50
2022-08-27T17:32:34.633Z,99822.03
2022-08-27T17:35:39.672Z,99842.03
2022-08-27T17:38:45.053Z,99842.28
2022-08-27T17:41:52.355Z,99863.63
2022-08-27T17:44:57.233Z,99859.75
2022-08-27T17:48:01.918Z,99867.84
2022-08-27T17:51:17.007Z,99865.19
2022-08-27T17:54:29.539Z,99879.63
2022-08-27T17:57:40.456Z,99882.28
2022-08-27T18:00:45.572Z,99876.38
2022-08-27T18:03:50.627Z,99880.19
2022-08-27T18:06:55.275Z,99887.38
2022-08-27T18:13:45.070Z,99893.09
2022-08-27T18:16:49.733Z,99902.75
2022-08-27T18:19:54.351Z,99894.88
2022-08-27T18:23:01.260Z,99902.59
2022-08-27T18:26:10.101Z,99914.69
2022-08-27T18:29:16.763Z,99917.44
2022-08-27T18:32:21.162Z,99915.56
2022-08-27T18:35:30.158Z,99910.53
2022-08-27T18:38:35.172Z,99912.56
2022-08-27T18:41:39.912Z,99927.38
2022-08-27T18:44:46.666Z,99929.50
2022-08-27T18:47:52.792Z,99924.34
2022-08-27T18:50:59.727Z,99942.22
2022-08-27T18:54:06.683Z,99941.00
2022-08-27T18:57:12.978Z,99936.75
2022-08-27T19:00:20.121Z,99931.47
2022-08-27T19:03:47.033Z,99938.19
2022-08-27T19:06:51.610Z,99937.47
2022-08-27T19:09:56.450Z,99929.59
2022-08-27T19:13:01.130Z,99944.56
2022-08-27T19:16:21.219Z,99959.22
2022-08-27T19:19:28.033Z,99958.66
2022-08-27T19:22:32.795Z,99959.97
2022-08-27T19:25:37.394Z,99972.84
2022-08-27T19:28:45.959Z,99972.78
2022-08-27T19:31:50.589Z,99974.97
2022-08-27T19:34:55.565Z,99979.28
2022-08-27T19:38:00.419Z,99972.78
2022-08-27T19:41:06.817Z,99979.06
2022-08-27T19:44:11.425Z,99974.03
2022-08-27T19:47:21.597Z,99971.06
2022-08-27T19:50:26.826Z,99988.78
2022-08-27T19:53:31.583Z,99981.28
2022-08-27T19:56:38.063Z,99983.28
2022-08-27T19:59:43.335Z,99967.25
2022-08-27T20:02:50.681Z,99991.13
2022-08-27T20:05:55.401Z,100001.28
2022-08-27T20:09:06.812Z,100011.28
2022-08-27T20:12:11.541Z,100015.75
2022-08-27T20:15:16.185Z,100022.75
2022-08-27T20:18:21.002Z,100022.84
2022-08-27T20:21:25.642Z,100030.13
2022-08-27T20:24:30.290Z,100041.91
2022-08-27T20:27:35.477Z,100041.00
2022-08-27T20:30:41.040Z,100046.47
2022-08-27T20:33:49.839Z,100057.69
2022-08-27T20:36:54.905Z,100064.22
2022-08-27T20:39:59.534Z,100071.72
2022-08-27T20:43:04.390Z,100062.22
2022-08-27T20:46:10.150Z,100050.91
2022-08-27T20:49:15.728Z,100099.88
2022-08-27T20:52:20.516Z,100088.28
2022-08-27T20:55:25.276Z,100103.63
2022-08-27T20:58:48.161Z,100095.84
2022-08-27T21:01:53.018Z,100100.81
2022-08-27T21:04:58.633Z,100127.34
2022-08-27T21:08:03.640Z,100129.06
2022-08-27T21:11:14.072Z,100136.66
2022-08-27T21:14:18.825Z,100144.97
2022-08-27T21:17:29.958Z,100152.91
2022-08-27T21:20:34.797Z,100150.81
2022-08-27T21:23:40.817Z,100155.47
2022-08-27T21:26:49.202Z,100160.16
2022-08-27T21:29:53.711Z,100154.47
2022-08-27T21:32:58.477Z,100166.75
2022-08-27T21:36:07.964Z,100183.94
2022-08-27T21:39:16.016Z,100177.66
2022-08-27T21:42:20.888Z,100196.56
2022-08-27T21:45:26.495Z,100202.25
2022-08-27T21:48:31.238Z,100194.09
2022-08-27T21:51:35.666Z,100191.72
2022-08-27T21:54:42.748Z,100208.66
2022-08-27T21:57:47.571Z,100207.81
2022-08-27T22:00:52.426Z,100194.06
2022-08-27T22:03:57.155Z,100216.69
2022-08-27T22:07:01.879Z,100224.00
2022-08-27T22:10:07.637Z,100230.84
2022-08-27T22:13:14.022Z,100231.31
2022-08-27T22:16:18.764Z,100227.38
2022-08-27T22:19:24.606Z,100240.72
2022-08-27T22:22:30.498Z,100235.38
2022-08-27T22:25:35.316Z,100242.63
2022-08-27T22:28:40.097Z,100244.50
2022-08-27T22:31:44.694Z,100236.63
2022-08-27T22:34:49.580Z,100260.09
2022-08-27T22:37:54.679Z,100258.44
2022-08-27T22:40:59.446Z,100252.94
2022-08-27T22:44:06.115Z,100253.78
2022-08-27T22:47:11.270Z,100259.72
2022-08-27T22:50:17.330Z,100251.28
2022-08-27T22:53:21.831Z,100271.50
2022-08-27T22:56:26.564Z,100261.81
2022-08-27T22:59:31.257Z,100273.13
2022-08-27T23:02:35.781Z,100271.53
2022-08-27T23:05:42.127Z,100283.63
2022-08-27T23:08:47.313Z,100277.03
2022-08-27T23:11:52.153Z,100268.72
2022-08-27T23:14:57.136Z,100283.69
2022-08-27T23:18:02.468Z,100300.91
2022-08-27T23:21:07.360Z,100301.00
2022-08-27T23:24:12.221Z,100301.06
2022-08-27T23:27:32.192Z,100287.53
2022-08-27T23:30:37.146Z,100297.00
2022-08-27T23:33:42.468Z,100305.91
2022-08-27T23:36:49.126Z,100322.72
2022-08-27T23:39:53.847Z,100322.16
2022-08-27T23:42:58.762Z,100326.88
2022-08-27T23:46:03.644Z,100332.84
2022-08-27T23:49:08.424Z,100331.13
2022-08-27T23:52:14.196Z,100349.50
2022-08-27T23:55:18.707Z,100354.72
2022-08-27T23:58:23.959Z,100357.09
